Terminal Aerodrome Forecast
Issued by NWS

Home | Current Version | Previous Version | Text Only | Print | Product List | Glossary On
Versions: 1 2 3 4 5 6 7 8 9 10 11 12 13 14 15
000
FTUS42 KJAX 211400 AAB
TAFCRG
TAF AMD
KCRG 211448Z 2115/2212 04008KT 5SM RA BR OVC005
      TEMPO 2115/2117 2SM RA BR
     FM211800 06005KT P6SM VCSH SCT005 OVC009
     FM220000 07003KT 5SM -RA BR BKN006=

USA.gov is the U.S. government's official web portal to all federal, state and local government web resources and services.